Charter Quote
Worldwide +1-877-727-2538 Call
Select Language Lang
SAFETY RELIABILITY EXPERIENCE

Private Jet Charter Services - Zhongchuan (ZLLL)

Paramount Business Jets offers private jet charter flights and luxury airliner charters to and from Zhongchuan.

AIRPORT INFORMATION
ICAOZLLL
IATAZGC
LOCATIONLanzhou, China
FACILITY TYPEAIRPORT

At Paramount Business Jets you can hire chartered private jets to and from Zhongchuan with as little as 4 hours of notice. All flights booked via Paramount Business Jets are operated by certified direct air carriers that meet and exceed the FAA part 135 and 121 protocol or a foreign equivalent safety authority. Furthermore, Paramount Business Jets subscribes to ARGUS for their third party safety checks of operators, aircraft, and crews prior each and every flight to and from Zhongchuan and worldwide.

  • Quote a trip using Zhongchuan or call us 24/7 - 365 days a year at +1-877-727-2538.
Questions? Call +1-877-727-2538

METAR Weather Data at Zhongchuan, ZLLL, ZGC

STATIONZLLL
OBSERVEDMon Jul 22, 09:00 UTC
NOWMon Jul 22, 09:58 UTC
AGE58 min ago
WINDE at 7 mph
VISIBILITY16 miles
CLOUDSmostly cloudy
TEMP79°F (26°C)
DEWPT46°F (8°C)
HUMIDITY32%
BAROMETER1013 hPa (29.91 in Hg)
METARZLLL 220900Z 08003MPS 040V150 9999 BKN023 26/08 Q1013 NOSIG

Call us on +1-877-727-2538 (24 Hours) to Hire a Private Jet or Get a Quick Quote.

Find Airports Near any Location

Processing
...